• Join FlightAware (Why Join?)
  • Login
  • US Flag 
01:46AM EDT


 

Airport Tracker/Info


-or-


 

Live Flight TrackerFlight Track Log ✈ JZA8279 ✈ 30-Apr-2013 ✈ CYPR - CYVR

Flight Track Log - Related Links

Times and Time Zones

All times are in EDT time to prevent confusion due to time zone crossing. See the JZA8279 flight status page for this flight to view local times or setup timezone preferences in your user account.

Time Position Orientation Groundspeed Altitude Reporting Facility
EDT Latitude Longitude Course Direction KTS MPH feet Rate Location/Type
01:36PM 54.2500 -130.4500 150° Southeast 120 138 1,300  Level Vancouver Center
01:37PM 54.2167 -130.4167 150° Southeast 130 150 2,700 1,260 Climbing Vancouver Center
01:38PM 54.1833 -130.3833 150° Southeast 140 161 3,900 1,260 Climbing Vancouver Center
01:39PM 54.1500 -130.3500 150° Southeast 150 173 5,300 1,200 Climbing Vancouver Center
01:40PM 54.1333 -130.3000 120° Southeast 160 184 6,300 900 Climbing Vancouver Center
01:41PM 54.1000 -130.2333 130° Southeast 180 207 7,200 900 Climbing Vancouver Center
01:42PM 54.0500 -130.1667 142° Southeast 200 230 8,200 1,020 Climbing Vancouver Center
01:43PM 54.0167 -130.1000 130° Southeast 200 230 9,300 1,020 Climbing Vancouver Center
01:44PM 53.9667 -130.0167 136° Southeast 200 230 10,300 960 Climbing Vancouver Center
01:45PM 53.9500 -129.9500 113° Southeast 210 242 11,300 960 Climbing Vancouver Center
01:46PM 53.9000 -129.8833 142° Southeast 220 253 12,300 960 Climbing Vancouver Center
01:47PM 53.8500 -129.8000 135° Southeast 220 253 13,300 900 Climbing Vancouver Center
01:48PM 53.8000 -129.7333 142° Southeast 230 265 14,200 840 Climbing Vancouver Center
01:49PM 53.7500 -129.6500 135° Southeast 240 276 15,000 900 Climbing Vancouver Center
01:50PM 53.7167 -129.5833 130° Southeast 250 288 16,000 900 Climbing Vancouver Center
01:51PM 53.6667 -129.4833 130° Southeast 240 276 16,900 840 Climbing Vancouver Center
01:52PM 53.6167 -129.4000 135° Southeast 250 288 17,700 600 Climbing Vancouver Center
01:53PM 53.5500 -129.3333 149° Southeast 250 288 18,100 600 Climbing Vancouver Center
01:54PM 53.5000 -129.2500 135° Southeast 250 288 18,900 720 Climbing Vancouver Center
01:55PM 53.4667 -129.1500 119° Southeast 250 288 19,600 600 Climbing Vancouver Center
01:56PM 53.4167 -129.0667 135° Southeast 240 276 20,200 600 Climbing Vancouver Center
01:57PM 53.3667 -128.9667 130° Southeast 270 311 20,900 660 Climbing Vancouver Center
01:58PM 53.3000 -128.9167 156° South 270 311 21,600 600 Climbing Vancouver Center
01:59PM 53.2667 -128.8167 119° Southeast 270 311 22,100 480 Climbing Vancouver Center
02:00PM 53.2000 -128.7333 143° Southeast 270 311 22,600 420 Climbing Vancouver Center
02:01PM 53.1500 -128.6500 135° Southeast 270 311 23,000 420 Climbing Vancouver Center
02:02PM 53.1000 -128.5500 130° Southeast 280 322 23,500 420 Climbing Vancouver Center
02:03PM 53.0333 -128.4667 143° Southeast 280 322 23,900 420 Climbing Vancouver Center
02:04PM 52.9833 -128.3667 130° Southeast 280 322 24,400 420 Climbing Vancouver Center
02:05PM 52.9167 -128.2500 133° Southeast 300 345 24,800 300 Climbing Vancouver Center
02:06PM 52.8667 -128.1667 135° Southeast 290 334 25,000 60 Climbing Vancouver Center
02:07PM 52.8000 -128.0833 143° Southeast 310 357 25,000  Level Vancouver Center
02:08PM 52.7333 -127.9667 133° Southeast 320 368 25,000  Level Vancouver Center
02:09PM 52.6667 -127.8667 138° Southeast 330 380 25,000  Level Vancouver Center
02:10PM 52.6000 -127.7500 133° Southeast 330 380 25,000  Level Vancouver Center
02:11PM 52.5333 -127.6667 143° Southeast 330 380 25,000  Level Vancouver Center
02:12PM 52.4667 -127.5500 133° Southeast 330 380 25,000  Level Vancouver Center
02:13PM 52.4000 -127.4667 143° Southeast 330 380 25,000  Level Vancouver Center
02:14PM 52.3333 -127.3500 133° Southeast 330 380 25,000  Level Vancouver Center
02:15PM 52.2833 -127.2667 134° Southeast 330 380 25,000  Level Vancouver Center
02:16PM 52.2000 -127.1500 139° Southeast 340 391 25,000  Level Vancouver Center
02:17PM 52.1333 -127.0333 133° Southeast 330 380 25,000  Level Vancouver Center
02:18PM 52.0667 -126.9167 133° Southeast 330 380 25,000  Level Vancouver Center
02:19PM 52.0000 -126.8333 142° Southeast 330 380 25,000  Level Vancouver Center
02:20PM 51.9167 -126.7167 139° Southeast 330 380 25,000  Level Vancouver Center
02:21PM 51.8667 -126.6333 134° Southeast 330 380 25,000  Level Vancouver Center
02:22PM 51.8000 -126.5167 133° Southeast 330 380 25,000  Level Vancouver Center
02:23PM 51.7333 -126.4167 137° Southeast 330 380 25,000  Level Vancouver Center
02:24PM 51.6500 -126.3333 148° Southeast 340 391 25,000  Level Vancouver Center
02:25PM 51.5833 -126.2167 133° Southeast 330 380 25,000  Level Vancouver Center
02:26PM 51.5167 -126.1333 142° Southeast 340 391 25,000  Level Vancouver Center
02:27PM 51.4500 -126.0167 132° Southeast 330 380 25,000  Level Vancouver Center
02:28PM 51.3667 -125.9167 143° Southeast 340 391 25,000  Level Vancouver Center
02:29PM 51.3000 -125.8333 142° Southeast 340 391 25,000  Level Vancouver Center
02:30PM 51.2500 -125.7167 124° Southeast 340 391 25,000  Level Vancouver Center
02:31PM 51.1833 -125.6167 137° Southeast 340 391 25,000  Level Vancouver Center
02:32PM 51.1000 -125.5333 148° Southeast 340 391 25,000  Level Vancouver Center
02:33PM 51.0333 -125.4167 132° Southeast 340 391 25,000  Level Vancouver Center
02:34PM 50.9667 -125.3167 137° Southeast 340 391 25,000  Level Vancouver Center
02:35PM 50.8833 -125.2333 148° Southeast 340 391 25,000  Level Vancouver Center
02:36PM 50.8167 -125.1167 132° Southeast 340 391 25,000  Level Vancouver Center
02:37PM 50.7500 -125.0167 136° Southeast 340 391 25,000  Level Vancouver Center
02:38PM 50.6833 -124.9333 142° Southeast 330 380 25,000  Level Vancouver Center
02:39PM 50.6167 -124.8167 132° Southeast 330 380 25,000  Level Vancouver Center
02:40PM 50.5333 -124.7167 143° Southeast 340 391 25,000  Level Vancouver Center
02:41PM 50.4667 -124.6333 141° Southeast 340 391 25,000 -300 Level Vancouver Center
02:42PM 50.4000 -124.5333 136° Southeast 330 380 24,400 -1,140 Descending Vancouver Center
02:43PM 50.3167 -124.4333 143° Southeast 360 414 22,800 -1,680 Descending Vancouver Center
02:44PM 50.2333 -124.3167 138° Southeast 360 414 21,100 -1,620 Descending Vancouver Center
02:45PM 50.1667 -124.2500 147° Southeast 350 403 19,600 -1,500 Descending Vancouver Center
02:46PM 50.1000 -124.1333 132° Southeast 340 391 18,100 -1,260 Descending Vancouver Center
02:47PM 50.0333 -124.0667 147° Southeast 330 380 17,100 -1,320 Descending Vancouver Center
02:48PM 49.9500 -123.9500 138° Southeast 330 380 15,500 -1,500 Descending Vancouver Center
02:49PM 49.8833 -123.8833 147° Southeast 320 368 14,100 -1,500 Descending Vancouver Center
02:50PM 49.8167 -123.7667 132° Southeast 310 357 12,600 -1,320 Descending Vancouver Center
02:51PM 49.7667 -123.7000 139° Southeast 300 345 11,500 -1,080 Descending Vancouver Center
02:52PM 49.6833 -123.6500 159° South 290 334 10,500 -780 Descending Vancouver Center
02:53PM 49.6167 -123.6000 154° Southeast 270 311 10,000 -300 Descending Vancouver Center
02:54PM 49.5667 -123.5500 147° Southeast 260 299 10,000  Level Vancouver Center
02:55PM 49.5000 -123.4833 147° Southeast 260 299 10,000  Level Vancouver Center
02:56PM 49.4333 -123.4333 154° Southeast 260 299 10,000  Level Vancouver Center
02:57PM 49.3667 -123.3833 154° Southeast 260 299 10,000  Level Vancouver Center
02:58PM 49.3000 -123.3333 154° Southeast 260 299 10,000  Level Vancouver Center
02:59PM 49.2667 -123.2667 127° Southeast 260 299 10,000 -720 Level Vancouver Center
03:00PM 49.2333 -123.1667 117° Southeast 250 288 8,600 -1,380 Descending Vancouver Center
03:01PM 49.1667 -123.1333 162° South 240 276 7,300 -1,560 Descending Vancouver Center
03:02PM 49.1000 -123.0833 154° Southeast 240 276 5,500 -1,860 Descending Vancouver Center
03:03PM 49.0500 -123.0333 147° Southeast 230 265 3,600 -1,260 Descending Vancouver Center
03:04PM 49.1000 -122.9833 33° Northeast 200 230 3,000 -1,020 Descending Vancouver Center
03:05PM 49.1500 -123.0000 348° North 180 207 1,600 -1,440 Descending Vancouver Center